Time;durP1;ratioP1;P1;durP2;ratioP2;P2;SDS_P1;SDS_P2;PMS_P1;PMS_P2;Temp;Humidity;BMP_temperature;BMP_pressure;BME280_temperature;BME280_humidity;BME280_pressure;Samples;Min_cycle;Max_cycle;Signal;HPM_P1;HPM_P2
2023/08/05 00:02:12;;;;;;;0.10;0.10;;;;;;;;;;5091213;28;20248;-72
2023/08/05 00:04:38;;;;;;;0.00;0.00;;;;;;;;;;5085969;28;20273;-73
2023/08/05 00:07:05;;;;;;;0.00;0.00;;;;;;;;;;5090803;28;20260;-72
2023/08/05 00:09:31;;;;;;;0.10;0.10;;;;;;;;;;5086452;28;20448;-73
2023/08/05 00:11:57;;;;;;;0.10;0.10;;;;;;;;;;5089777;28;20474;-72
2023/08/05 00:14:24;;;;;;;0.10;0.10;;;;;;;;;;5087250;28;20259;-73
2023/08/05 00:16:54;;;;;;;0.08;0.08;;;;;;;;;;5088778;28;20507;-72
2023/08/05 00:19:20;;;;;;;0.10;0.10;;;;;;;;;;5087355;28;20225;-72
2023/08/05 00:21:47;;;;;;;0.05;0.05;;;;;;;;;;5088126;28;20503;-73
2023/08/05 00:24:13;;;;;;;0.10;0.10;;;;;;;;;;5088176;28;20192;-73
2023/08/05 00:26:39;;;;;;;0.10;0.10;;;;;;;;;;5087279;28;20241;-74
2023/08/05 00:29:06;;;;;;;0.00;0.00;;;;;;;;;;5089370;28;20556;-73
2023/08/05 00:31:32;;;;;;;0.10;0.10;;;;;;;;;;5085750;28;20252;-73
2023/08/05 00:34:00;;;;;;;0.10;0.10;;;;;;;;;;5090150;28;20263;-72
2023/08/05 00:36:26;;;;;;;0.10;0.10;;;;;;;;;;5085339;28;20492;-73
2023/08/05 00:38:53;;;;;;;0.00;0.00;;;;;;;;;;5090890;28;20277;-72
2023/08/05 00:41:19;;;;;;;0.10;0.10;;;;;;;;;;5084340;28;20259;-72
2023/08/05 00:43:45;;;;;;;0.08;0.08;;;;;;;;;;5091406;28;20207;-73
2023/08/05 00:46:22;;;;;;;0.10;0.10;;;;;;;;;;5082972;28;20245;-73
2023/08/05 00:48:49;;;;;;;0.10;0.10;;;;;;;;;;5090942;28;20256;-74
2023/08/05 00:51:18;;;;;;;0.10;0.10;;;;;;;;;;5082687;28;20232;-74
2023/08/05 00:53:44;;;;;;;0.05;0.05;;;;;;;;;;5091342;28;20497;-73
2023/08/05 00:56:11;;;;;;;0.10;0.10;;;;;;;;;;5082887;28;20596;-73
2023/08/05 00:58:38;;;;;;;0.00;0.00;;;;;;;;;;5092119;28;20214;-74
2023/08/05 01:01:04;;;;;;;0.00;0.00;;;;;;;;;;5081909;28;20298;-74
2023/08/05 01:03:31;;;;;;;0.00;0.00;;;;;;;;;;5092984;28;20244;-74
2023/08/05 01:05:57;;;;;;;0.05;0.05;;;;;;;;;;5080918;28;20320;-74
2023/08/05 01:08:25;;;;;;;0.10;0.10;;;;;;;;;;5093727;28;20237;-73
2023/08/05 01:10:51;;;;;;;0.10;0.10;;;;;;;;;;5079790;28;20252;-72
2023/08/05 01:13:18;;;;;;;0.10;0.10;;;;;;;;;;5094438;28;20272;-73
2023/08/05 01:15:45;;;;;;;0.00;0.00;;;;;;;;;;5078894;28;20261;-72
2023/08/05 01:18:12;;;;;;;0.00;0.00;;;;;;;;;;5095414;28;20505;-73
2023/08/05 01:20:39;;;;;;;0.10;0.10;;;;;;;;;;5077934;28;20237;-73
2023/08/05 01:23:08;;;;;;;0.10;0.10;;;;;;;;;;5095591;28;20246;-71
2023/08/05 01:25:37;;;;;;;0.00;0.00;;;;;;;;;;5077617;28;20379;-72
2023/08/05 01:28:03;;;;;;;0.10;0.10;;;;;;;;;;5096229;28;20211;-72
2023/08/05 01:30:32;;;;;;;0.00;0.00;;;;;;;;;;5076807;28;20266;-73
2023/08/05 01:32:59;;;;;;;0.10;0.10;;;;;;;;;;5096696;28;20195;-72
2023/08/05 01:35:26;;;;;;;0.05;0.05;;;;;;;;;;5076404;28;20395;-72
2023/08/05 01:37:52;;;;;;;0.00;0.00;;;;;;;;;;5097584;28;20247;-74
2023/08/05 01:40:18;;;;;;;0.05;0.05;;;;;;;;;;5075305;28;20375;-72
2023/08/05 01:42:46;;;;;;;0.10;0.10;;;;;;;;;;5098426;28;20241;-73
2023/08/05 01:45:12;;;;;;;0.10;0.10;;;;;;;;;;5074375;28;20237;-73
2023/08/05 01:47:39;;;;;;;0.10;0.10;;;;;;;;;;5099210;28;20276;-72
2023/08/05 01:50:06;;;;;;;0.10;0.10;;;;;;;;;;5083800;28;20273;-72
2023/08/05 01:52:32;;;;;;;0.10;0.10;;;;;;;;;;5072470;28;20253;-73
2023/08/05 01:54:58;;;;;;;0.05;0.05;;;;;;;;;;5084061;28;20204;-72
2023/08/05 01:57:25;;;;;;;0.10;0.10;;;;;;;;;;5089406;28;20315;-72
2023/08/05 01:59:53;;;;;;;0.08;0.08;;;;;;;;;;5083665;28;20226;-73
2023/08/05 02:02:19;;;;;;;0.03;0.03;;;;;;;;;;5088055;28;20258;-73
2023/08/05 02:04:46;;;;;;;0.10;0.10;;;;;;;;;;5083654;28;20241;-73
2023/08/05 02:07:12;;;;;;;0.10;0.10;;;;;;;;;;5089218;28;20257;-72
2023/08/05 02:09:39;;;;;;;0.10;0.10;;;;;;;;;;5083829;28;20403;-72
2023/08/05 02:12:05;;;;;;;0.10;0.10;;;;;;;;;;5088706;28;20431;-72
2023/08/05 02:14:32;;;;;;;0.03;0.03;;;;;;;;;;5083654;28;20306;-72
2023/08/05 02:16:59;;;;;;;0.08;0.08;;;;;;;;;;5087525;28;20302;-73
2023/08/05 02:19:26;;;;;;;0.10;0.10;;;;;;;;;;5084828;28;20556;-72
2023/08/05 02:21:52;;;;;;;0.10;0.10;;;;;;;;;;5086602;28;20490;-73
2023/08/05 02:24:18;;;;;;;0.10;0.10;;;;;;;;;;5085238;28;20268;-72
2023/08/05 02:26:45;;;;;;;0.10;0.10;;;;;;;;;;5085736;28;20242;-73
2023/08/05 02:29:11;;;;;;;0.10;0.10;;;;;;;;;;5086107;28;20308;-72
2023/08/05 02:31:38;;;;;;;0.00;0.00;;;;;;;;;;5084800;28;20311;-73
2023/08/05 02:34:05;;;;;;;0.00;0.00;;;;;;;;;;5087342;28;20211;-72
2023/08/05 02:36:32;;;;;;;0.10;0.10;;;;;;;;;;5084104;28;20244;-73
2023/08/05 02:38:58;;;;;;;0.10;0.10;;;;;;;;;;5088086;28;20277;-73
2023/08/05 02:41:24;;;;;;;0.10;0.10;;;;;;;;;;5083143;28;20332;-73
2023/08/05 02:43:51;;;;;;;0.10;0.10;;;;;;;;;;5089066;28;20501;-73
2023/08/05 02:46:17;;;;;;;0.10;0.10;;;;;;;;;;5081876;28;20237;-73
2023/08/05 02:48:43;;;;;;;0.10;0.10;;;;;;;;;;5089471;28;20454;-73
2023/08/05 02:51:11;;;;;;;0.00;0.00;;;;;;;;;;5081161;28;20251;-74
2023/08/05 02:53:37;;;;;;;0.00;0.00;;;;;;;;;;5090782;28;20210;-73
2023/08/05 02:56:04;;;;;;;0.10;0.10;;;;;;;;;;5080232;28;20258;-77
2023/08/05 02:58:30;;;;;;;0.03;0.03;;;;;;;;;;5091556;28;20209;-73
2023/08/05 03:01:04;;;;;;;0.08;0.08;;;;;;;;;;5079280;28;20256;-72
2023/08/05 03:03:31;;;;;;;0.00;0.00;;;;;;;;;;5091548;28;20363;-73
2023/08/05 03:05:57;;;;;;;0.10;0.10;;;;;;;;;;5079100;28;20488;-73
2023/08/05 03:08:25;;;;;;;0.00;0.00;;;;;;;;;;5092075;28;20270;-72
2023/08/05 03:10:56;;;;;;;0.10;0.10;;;;;;;;;;5078304;28;20265;-73
2023/08/05 03:13:22;;;;;;;0.10;0.10;;;;;;;;;;5093832;28;20555;-72
2023/08/05 03:15:49;;;;;;;0.10;0.10;;;;;;;;;;5082075;28;20506;-73
2023/08/05 03:18:15;;;;;;;0.00;0.00;;;;;;;;;;5097317;28;20450;-73
2023/08/05 03:20:41;;;;;;;0.10;0.10;;;;;;;;;;5081048;28;20536;-73
2023/08/05 03:23:08;;;;;;;0.10;0.10;;;;;;;;;;5097644;28;20575;-73
2023/08/05 03:25:35;;;;;;;0.05;0.05;;;;;;;;;;5079670;28;20244;-72
2023/08/05 03:28:02;;;;;;;0.10;0.10;;;;;;;;;;5098572;28;20225;-73
2023/08/05 03:30:28;;;;;;;0.10;0.10;;;;;;;;;;5079043;28;20289;-73
2023/08/05 03:32:54;;;;;;;0.10;0.10;;;;;;;;;;5099666;28;20236;-72
2023/08/05 03:35:21;;;;;;;0.03;0.03;;;;;;;;;;5078078;28;20274;-75
2023/08/05 03:37:47;;;;;;;0.00;0.00;;;;;;;;;;5100630;28;20242;-73
2023/08/05 03:40:13;;;;;;;0.10;0.10;;;;;;;;;;5076609;28;20207;-72
2023/08/05 03:42:41;;;;;;;0.10;0.10;;;;;;;;;;5101322;28;20419;-74
2023/08/05 03:45:08;;;;;;;0.08;0.08;;;;;;;;;;5081967;28;20236;-72
2023/08/05 03:47:35;;;;;;;0.10;0.10;;;;;;;;;;5101969;28;20213;-72
2023/08/05 03:50:01;;;;;;;0.10;0.10;;;;;;;;;;5086498;28;20388;-72
2023/08/05 03:52:29;;;;;;;0.10;0.10;;;;;;;;;;5091819;28;20241;-72
2023/08/05 03:54:55;;;;;;;0.10;0.10;;;;;;;;;;5086472;28;20203;-71
2023/08/05 03:57:21;;;;;;;0.10;0.10;;;;;;;;;;5091397;28;20445;-71
2023/08/05 03:59:49;;;;;;;0.03;0.03;;;;;;;;;;5086260;28;20439;-70
2023/08/05 04:02:16;;;;;;;0.10;0.10;;;;;;;;;;5091496;28;20254;-72
2023/08/05 04:04:51;;;;;;;0.10;0.10;;;;;;;;;;5086063;28;20236;-73
2023/08/05 04:10:13;;;;;;;0.10;0.10;;;;;;;;;;5131824;27;20375;-71
2023/08/05 04:12:39;;;;;;;0.10;0.10;;;;;;;;;;5132679;28;20219;-72
2023/08/05 04:15:07;;;;;;;0.05;0.05;;;;;;;;;;5101369;28;20202;-72
2023/08/05 04:17:34;;;;;;;0.10;0.10;;;;;;;;;;5089655;28;20208;-72
2023/08/05 04:20:01;;;;;;;0.10;0.10;;;;;;;;;;5101540;28;20203;-71
2023/08/05 04:22:27;;;;;;;0.10;0.10;;;;;;;;;;5123488;28;20238;-71
2023/08/05 04:24:54;;;;;;;0.10;0.10;;;;;;;;;;5101450;28;20523;-72
2023/08/05 04:27:22;;;;;;;0.10;0.10;;;;;;;;;;5123439;28;20264;-71
2023/08/05 04:29:48;;;;;;;0.10;0.10;;;;;;;;;;5101188;28;20235;-71
2023/08/05 04:32:15;;;;;;;0.10;0.10;;;;;;;;;;5123301;28;20264;-71
2023/08/05 04:34:41;;;;;;;0.10;0.10;;;;;;;;;;5101072;28;20243;-71
2023/08/05 04:37:17;;;;;;;0.10;0.10;;;;;;;;;;5122993;28;20308;-71
2023/08/05 04:39:43;;;;;;;0.10;0.10;;;;;;;;;;5101075;28;20204;-71
2023/08/05 04:42:10;;;;;;;0.10;0.10;;;;;;;;;;5123078;28;20257;-71
2023/08/05 04:44:39;;;;;;;0.10;0.10;;;;;;;;;;5100922;28;20290;-71
2023/08/05 04:47:06;;;;;;;0.10;0.10;;;;;;;;;;5122428;28;20556;-71
2023/08/05 04:49:32;;;;;;;0.10;0.10;;;;;;;;;;5101122;28;20270;-72
2023/08/05 04:52:05;;;;;;;0.10;0.10;;;;;;;;;;5120399;28;20253;-71
2023/08/05 04:54:32;;;;;;;0.10;0.10;;;;;;;;;;5101186;28;20300;-72
2023/08/05 04:57:00;;;;;;;0.10;0.10;;;;;;;;;;5120148;28;20313;-71
2023/08/05 04:59:27;;;;;;;0.10;0.10;;;;;;;;;;5102283;28;20227;-71
2023/08/05 05:01:55;;;;;;;0.10;0.10;;;;;;;;;;5118669;28;20269;-71
2023/08/05 05:04:21;;;;;;;0.00;0.00;;;;;;;;;;5104132;28;20214;-71
2023/08/05 05:06:47;;;;;;;0.10;0.10;;;;;;;;;;5117049;28;20297;-71
2023/08/05 05:09:14;;;;;;;0.03;0.03;;;;;;;;;;5105230;28;20242;-71
2023/08/05 05:11:40;;;;;;;0.10;0.10;;;;;;;;;;5114979;28;20271;-71
2023/08/05 05:14:07;;;;;;;0.05;0.05;;;;;;;;;;5107767;28;20212;-71
2023/08/05 05:16:33;;;;;;;0.10;0.10;;;;;;;;;;5112900;28;20241;-71
2023/08/05 05:19:01;;;;;;;0.05;0.05;;;;;;;;;;5109406;28;20258;-71
2023/08/05 05:21:27;;;;;;;0.00;0.00;;;;;;;;;;5098227;28;20250;-71
2023/08/05 05:23:54;;;;;;;0.10;0.10;;;;;;;;;;5096887;28;20280;-71
2023/08/05 05:26:20;;;;;;;0.00;0.00;;;;;;;;;;5095596;28;20254;-71
2023/08/05 05:28:46;;;;;;;0.10;0.10;;;;;;;;;;5099225;28;20230;-71
2023/08/05 05:31:13;;;;;;;0.00;0.00;;;;;;;;;;5093435;28;20305;-71
2023/08/05 05:33:39;;;;;;;0.10;0.10;;;;;;;;;;5101214;28;20234;-71
2023/08/05 05:36:07;;;;;;;0.10;0.10;;;;;;;;;;5091266;28;20238;-71
2023/08/05 05:38:33;;;;;;;0.10;0.10;;;;;;;;;;5102949;28;20452;-71
2023/08/05 05:40:59;;;;;;;0.10;0.10;;;;;;;;;;5089655;28;20239;-71
2023/08/05 05:43:26;;;;;;;0.10;0.10;;;;;;;;;;5104430;28;20277;-71
2023/08/05 05:45:52;;;;;;;0.10;0.10;;;;;;;;;;5087658;28;20278;-72
2023/08/05 05:48:19;;;;;;;0.20;0.20;;;;;;;;;;5106355;28;20235;-71
2023/08/05 05:50:45;;;;;;;0.10;0.10;;;;;;;;;;5085869;28;20244;-72
2023/08/05 05:53:14;;;;;;;0.10;0.10;;;;;;;;;;5108333;28;20222;-71
2023/08/05 05:55:42;;;;;;;0.10;0.10;;;;;;;;;;5084598;28;20584;-71
2023/08/05 05:58:08;;;;;;;0.10;0.10;;;;;;;;;;5109055;28;20218;-71
2023/08/05 06:00:37;;;;;;;0.10;0.10;;;;;;;;;;5082122;28;20257;-71
2023/08/05 06:03:03;;;;;;;0.10;0.10;;;;;;;;;;5110837;28;20393;-71
2023/08/05 06:05:30;;;;;;;0.30;0.30;;;;;;;;;;5081405;28;20486;-71
2023/08/05 06:07:57;;;;;;;0.03;0.03;;;;;;;;;;5111396;28;20275;-71
2023/08/05 06:10:24;;;;;;;0.10;0.10;;;;;;;;;;5079771;28;20259;-71
2023/08/05 06:12:51;;;;;;;0.00;0.00;;;;;;;;;;5113518;28;20495;-71
2023/08/05 06:15:17;;;;;;;0.00;0.00;;;;;;;;;;5077958;28;20370;-71
2023/08/05 06:17:45;;;;;;;0.10;0.10;;;;;;;;;;5114913;28;20219;-71
2023/08/05 06:20:12;;;;;;;0.00;0.00;;;;;;;;;;5076258;28;20239;-71
2023/08/05 06:22:39;;;;;;;0.03;0.03;;;;;;;;;;5116374;28;20223;-71
2023/08/05 06:25:05;;;;;;;0.10;0.10;;;;;;;;;;5085277;28;20457;-72
2023/08/05 06:27:33;;;;;;;0.10;0.10;;;;;;;;;;5107593;28;20253;-72
2023/08/05 06:30:00;;;;;;;0.03;0.03;;;;;;;;;;5085411;28;20235;-71
2023/08/05 06:32:26;;;;;;;0.10;0.10;;;;;;;;;;5106405;28;20312;-72
2023/08/05 06:34:53;;;;;;;0.10;0.10;;;;;;;;;;5085264;28;20231;-71
2023/08/05 06:37:20;;;;;;;0.10;0.10;;;;;;;;;;5107333;28;20500;-72
2023/08/05 06:39:46;;;;;;;0.10;0.10;;;;;;;;;;5085177;28;20262;-71
2023/08/05 06:42:12;;;;;;;0.05;0.05;;;;;;;;;;5107244;28;20310;-71
2023/08/05 06:44:43;;;;;;;0.00;0.00;;;;;;;;;;5085029;28;20276;-71
2023/08/05 06:47:09;;;;;;;0.10;0.10;;;;;;;;;;5107155;28;20491;-72
2023/08/05 06:49:36;;;;;;;0.20;0.20;;;;;;;;;;5085041;28;20543;-72
2023/08/05 06:52:02;;;;;;;0.05;0.05;;;;;;;;;;5105382;28;20253;-72
2023/08/05 06:54:29;;;;;;;0.08;0.08;;;;;;;;;;5085726;28;20207;-72
2023/08/05 06:56:55;;;;;;;0.00;0.00;;;;;;;;;;5103374;28;20254;-72
2023/08/05 06:59:21;;;;;;;0.10;0.10;;;;;;;;;;5088060;28;20285;-72
2023/08/05 07:01:49;;;;;;;0.10;0.10;;;;;;;;;;5101375;28;20313;-72
2023/08/05 07:04:15;;;;;;;0.00;0.00;;;;;;;;;;5089750;28;20239;-71
2023/08/05 07:06:44;;;;;;;0.10;0.10;;;;;;;;;;5099754;28;20506;-71
2023/08/05 07:09:10;;;;;;;0.10;0.10;;;;;;;;;;5090590;28;20212;-71
2023/08/05 07:11:36;;;;;;;0.03;0.03;;;;;;;;;;5097928;28;20306;-71
2023/08/05 07:14:03;;;;;;;0.00;0.00;;;;;;;;;;5092742;28;20242;-72
2023/08/05 07:16:29;;;;;;;0.05;0.05;;;;;;;;;;5095886;28;20251;-71
2023/08/05 07:18:57;;;;;;;1.55;1.55;;;;;;;;;;5094695;28;20389;-72
2023/08/05 07:21:23;;;;;;;0.10;0.10;;;;;;;;;;5094130;28;20264;-72
2023/08/05 07:23:50;;;;;;;0.00;0.00;;;;;;;;;;5096320;28;20275;-72
2023/08/05 07:26:16;;;;;;;0.00;0.00;;;;;;;;;;5092484;28;20314;-71
2023/08/05 07:28:43;;;;;;;0.05;0.05;;;;;;;;;;5097913;28;20211;-72
2023/08/05 07:31:10;;;;;;;0.10;0.10;;;;;;;;;;5090398;28;20234;-71
2023/08/05 07:33:36;;;;;;;0.00;0.00;;;;;;;;;;5099550;28;20204;-72
2023/08/05 07:36:11;;;;;;;0.05;0.05;;;;;;;;;;5088680;28;20265;-71
2023/08/05 07:38:40;;;;;;;0.05;0.05;;;;;;;;;;5099411;28;20406;-71
2023/08/05 07:41:06;;;;;;;0.00;0.00;;;;;;;;;;5089270;28;20246;-71
2023/08/05 07:43:35;;;;;;;0.00;0.00;;;;;;;;;;5100322;28;20418;-71
2023/08/05 07:46:02;;;;;;;0.00;0.00;;;;;;;;;;5088187;28;20628;-71
2023/08/05 07:48:32;;;;;;;0.10;0.10;;;;;;;;;;5101648;28;20204;-71
2023/08/05 07:51:00;;;;;;;0.10;0.10;;;;;;;;;;5087203;28;20236;-71
2023/08/05 07:53:29;;;;;;;0.00;0.00;;;;;;;;;;5102042;28;20249;-72
2023/08/05 07:55:56;;;;;;;0.10;0.10;;;;;;;;;;5086322;28;20237;-71
2023/08/05 07:58:22;;;;;;;0.10;0.10;;;;;;;;;;5103031;28;20244;-71
2023/08/05 08:00:49;;;;;;;0.10;0.10;;;;;;;;;;5084076;28;20251;-71
2023/08/05 08:03:15;;;;;;;0.10;0.10;;;;;;;;;;5105125;28;20211;-71
2023/08/05 08:05:41;;;;;;;0.00;0.00;;;;;;;;;;5082388;28;20255;-72
2023/08/05 08:08:08;;;;;;;0.10;0.10;;;;;;;;;;5106598;28;20224;-72
2023/08/05 08:10:35;;;;;;;0.10;0.10;;;;;;;;;;5080456;28;20446;-72
2023/08/05 08:13:02;;;;;;;0.10;0.10;;;;;;;;;;5108917;28;20215;-71
2023/08/05 08:15:28;;;;;;;0.00;0.00;;;;;;;;;;5078838;28;20257;-72
2023/08/05 08:17:55;;;;;;;0.03;0.03;;;;;;;;;;5110608;28;20261;-72
2023/08/05 08:20:21;;;;;;;0.00;0.00;;;;;;;;;;5076817;28;20541;-72
2023/08/05 08:22:48;;;;;;;0.10;0.10;;;;;;;;;;5111809;28;20297;-73
2023/08/05 08:25:14;;;;;;;0.08;0.08;;;;;;;;;;5074873;28;20214;-72
2023/08/05 08:27:42;;;;;;;0.08;0.08;;;;;;;;;;5114077;28;20420;-72
2023/08/05 08:30:10;;;;;;;0.00;0.00;;;;;;;;;;5080620;28;20232;-72
2023/08/05 08:32:36;;;;;;;0.00;0.00;;;;;;;;;;5115258;28;20223;-71
2023/08/05 08:35:02;;;;;;;0.00;0.00;;;;;;;;;;5083637;28;20278;-71
2023/08/05 08:37:29;;;;;;;0.00;0.00;;;;;;;;;;5105701;28;20252;-72
2023/08/05 08:39:55;;;;;;;0.10;0.10;;;;;;;;;;5083458;28;20295;-72
2023/08/05 08:42:21;;;;;;;0.00;0.00;;;;;;;;;;5105516;28;20239;-70
2023/08/05 08:44:50;;;;;;;0.00;0.00;;;;;;;;;;5083569;28;20205;-71
2023/08/05 08:47:16;;;;;;;0.00;0.00;;;;;;;;;;5105416;28;20239;-71
2023/08/05 08:49:43;;;;;;;0.08;0.08;;;;;;;;;;5083406;28;20233;-71
2023/08/05 08:52:12;;;;;;;0.03;0.03;;;;;;;;;;5105470;28;20312;-72
2023/08/05 08:54:39;;;;;;;0.00;0.00;;;;;;;;;;5083503;28;20276;-71
2023/08/05 08:57:06;;;;;;;0.08;0.08;;;;;;;;;;5108443;28;20258;-71
2023/08/05 08:59:33;;;;;;;0.00;0.00;;;;;;;;;;5087437;28;20252;-71
2023/08/05 09:02:01;;;;;;;0.00;0.00;;;;;;;;;;5105431;28;20306;-72
2023/08/05 09:04:30;;;;;;;0.00;0.00;;;;;;;;;;5090140;28;20208;-72
2023/08/05 09:06:57;;;;;;;0.00;0.00;;;;;;;;;;5105673;28;20495;-71
2023/08/05 09:09:23;;;;;;;0.00;0.00;;;;;;;;;;5089292;28;20467;-71
2023/08/05 09:11:50;;;;;;;0.08;0.08;;;;;;;;;;5104027;28;20556;-72
2023/08/05 09:14:16;;;;;;;0.00;0.00;;;;;;;;;;5091542;28;20206;-71
2023/08/05 09:16:59;;;;;;;0.00;0.00;;;;;;;;;;5101811;28;20297;-72
2023/08/05 09:19:27;;;;;;;0.00;0.00;;;;;;;;;;5087204;28;20416;-71
2023/08/05 09:21:54;;;;;;;0.10;0.10;;;;;;;;;;5104580;28;20455;-72
2023/08/05 09:24:24;;;;;;;0.10;0.10;;;;;;;;;;5090407;28;20206;-71
2023/08/05 09:26:54;;;;;;;0.00;0.00;;;;;;;;;;5103833;28;20284;-71
2023/08/05 09:29:21;;;;;;;0.05;0.05;;;;;;;;;;5089996;28;20204;-72
2023/08/05 09:31:54;;;;;;;0.00;0.00;;;;;;;;;;5102987;28;20575;-71
2023/08/05 09:34:21;;;;;;;0.08;0.08;;;;;;;;;;5090179;28;20237;-72
2023/08/05 09:36:49;;;;;;;0.03;0.03;;;;;;;;;;5102799;28;20491;-71
2023/08/05 09:39:16;;;;;;;0.00;0.00;;;;;;;;;;5091716;28;20209;-72
2023/08/05 09:41:49;;;;;;;0.10;0.10;;;;;;;;;;5101339;28;20245;-71
2023/08/05 09:44:16;;;;;;;0.10;0.10;;;;;;;;;;5091147;28;20206;-71
2023/08/05 09:46:43;;;;;;;0.00;0.00;;;;;;;;;;5101156;28;20255;-72
2023/08/05 09:49:12;;;;;;;0.08;0.08;;;;;;;;;;5092888;28;20211;-71
2023/08/05 09:51:42;;;;;;;0.00;0.00;;;;;;;;;;5100135;28;20240;-71
2023/08/05 09:54:11;;;;;;;0.08;0.08;;;;;;;;;;5092955;28;20205;-71
2023/08/05 09:56:39;;;;;;;0.03;0.03;;;;;;;;;;5100173;28;20245;-73
2023/08/05 09:59:07;;;;;;;0.10;0.10;;;;;;;;;;5093461;28;20206;-71
2023/08/05 10:01:34;;;;;;;0.00;0.00;;;;;;;;;;5098665;28;20298;-72
2023/08/05 10:04:02;;;;;;;0.00;0.00;;;;;;;;;;5094459;28;20276;-72
2023/08/05 10:06:29;;;;;;;0.10;0.10;;;;;;;;;;5097374;28;20245;-71
2023/08/05 10:08:55;;;;;;;0.08;0.08;;;;;;;;;;5095568;28;20222;-71
2023/08/05 10:11:23;;;;;;;0.00;0.00;;;;;;;;;;5095076;28;20242;-72
2023/08/05 10:13:52;;;;;;;0.00;0.00;;;;;;;;;;5097665;28;20274;-71
2023/08/05 10:16:19;;;;;;;0.10;0.10;;;;;;;;;;5094116;28;20238;-71
2023/08/05 10:18:46;;;;;;;0.00;0.00;;;;;;;;;;5098615;28;20518;-71
2023/08/05 10:21:13;;;;;;;0.00;0.00;;;;;;;;;;5092647;28;20438;-71
2023/08/05 10:23:39;;;;;;;0.00;0.00;;;;;;;;;;5099917;28;20261;-71
2023/08/05 10:26:06;;;;;;;0.00;0.00;;;;;;;;;;5090575;28;20321;-72
2023/08/05 10:28:40;;;;;;;0.00;0.00;;;;;;;;;;5101856;28;20233;-72
2023/08/05 10:31:07;;;;;;;0.00;0.00;;;;;;;;;;5090603;28;20242;-71
2023/08/05 10:33:54;;;;;;;0.00;0.00;;;;;;;;;;5101820;28;20420;-72
2023/08/05 10:36:20;;;;;;;0.00;0.00;;;;;;;;;;5094299;28;20305;-71
2023/08/05 10:38:46;;;;;;;0.00;0.00;;;;;;;;;;5097961;28;20206;-71
2023/08/05 10:41:15;;;;;;;0.00;0.00;;;;;;;;;;5092299;28;20298;-71
2023/08/05 10:43:43;;;;;;;0.00;0.00;;;;;;;;;;5099090;28;20233;-71
2023/08/05 10:46:13;;;;;;;0.00;0.00;;;;;;;;;;5091119;28;20262;-72
2023/08/05 10:48:40;;;;;;;0.00;0.00;;;;;;;;;;5099886;28;20205;-72
2023/08/05 10:51:08;;;;;;;0.00;0.00;;;;;;;;;;5090121;28;20267;-72
2023/08/05 10:53:34;;;;;;;0.00;0.00;;;;;;;;;;5101168;28;20213;-72
2023/08/05 10:56:00;;;;;;;0.10;0.10;;;;;;;;;;5088573;28;20260;-73
2023/08/05 10:58:28;;;;;;;0.10;0.10;;;;;;;;;;5102650;28;20213;-72
2023/08/05 11:00:59;;;;;;;0.00;0.00;;;;;;;;;;5086796;28;20238;-72
2023/08/05 11:03:33;;;;;;;0.00;0.00;;;;;;;;;;5103303;28;20239;-71
2023/08/05 11:06:03;;;;;;;0.10;0.10;;;;;;;;;;5088190;28;20502;-71
2023/08/05 11:08:30;;;;;;;0.00;0.00;;;;;;;;;;5101447;28;20256;-71
2023/08/05 11:10:57;;;;;;;0.00;0.00;;;;;;;;;;5087563;28;20263;-72
2023/08/05 11:13:24;;;;;;;0.00;0.00;;;;;;;;;;5103306;28;20272;-71
2023/08/05 11:16:02;;;;;;;0.08;0.08;;;;;;;;;;5085648;28;20524;-72
2023/08/05 11:18:28;;;;;;;0.03;0.03;;;;;;;;;;5101908;28;20215;-72
2023/08/05 11:20:55;;;;;;;0.00;0.00;;;;;;;;;;5086640;28;20259;-71
2023/08/05 11:23:22;;;;;;;0.00;0.00;;;;;;;;;;5103702;28;20230;-71
2023/08/05 11:25:48;;;;;;;0.00;0.00;;;;;;;;;;5084686;28;20240;-71
2023/08/05 11:28:15;;;;;;;0.00;0.00;;;;;;;;;;5105683;28;20203;-71
2023/08/05 11:30:42;;;;;;;0.00;0.00;;;;;;;;;;5082701;28;20258;-71
2023/08/05 11:33:10;;;;;;;0.00;0.00;;;;;;;;;;5107345;28;20237;-71
2023/08/05 11:35:42;;;;;;;0.00;0.00;;;;;;;;;;5081339;28;20334;-72
2023/08/05 11:38:09;;;;;;;0.00;0.00;;;;;;;;;;5107036;28;20276;-72
2023/08/05 11:40:40;;;;;;;0.03;0.03;;;;;;;;;;5080832;28;20263;-72
2023/08/05 11:43:06;;;;;;;0.00;0.00;;;;;;;;;;5107608;28;20199;-72
2023/08/05 11:45:32;;;;;;;0.10;0.10;;;;;;;;;;5080221;28;20248;-71
2023/08/05 11:47:59;;;;;;;0.00;0.00;;;;;;;;;;5109579;28;20233;-72
2023/08/05 11:50:34;;;;;;;0.10;0.10;;;;;;;;;;5078344;28;20533;-71
2023/08/05 11:53:04;;;;;;;0.10;0.10;;;;;;;;;;5109170;28;20222;-71
2023/08/05 11:55:33;;;;;;;0.00;0.00;;;;;;;;;;5079279;28;20240;-72
2023/08/05 11:58:00;;;;;;;0.00;0.00;;;;;;;;;;5109514;28;20219;-72
2023/08/05 12:00:27;;;;;;;0.00;0.00;;;;;;;;;;5077331;28;20399;-71
2023/08/05 12:02:53;;;;;;;0.08;0.08;;;;;;;;;;5112296;28;20226;-72
2023/08/05 12:05:20;;;;;;;0.00;0.00;;;;;;;;;;5076603;28;20203;-72
2023/08/05 12:07:47;;;;;;;0.00;0.00;;;;;;;;;;5112925;28;20435;-71
2023/08/05 12:10:14;;;;;;;0.00;0.00;;;;;;;;;;5074887;28;20230;-72
2023/08/05 12:12:43;;;;;;;0.00;0.00;;;;;;;;;;5114160;28;20258;-71
2023/08/05 12:15:13;;;;;;;0.00;0.00;;;;;;;;;;5079005;28;20231;-72
2023/08/05 12:17:39;;;;;;;0.00;0.00;;;;;;;;;;5115086;28;20215;-72
2023/08/05 12:20:09;;;;;;;0.00;0.00;;;;;;;;;;5083514;28;20274;-72
2023/08/05 12:22:35;;;;;;;0.00;0.00;;;;;;;;;;5071810;28;20232;-72
2023/08/05 12:25:04;;;;;;;0.00;0.00;;;;;;;;;;5083731;28;20282;-71
2023/08/05 12:27:30;;;;;;;0.00;0.00;;;;;;;;;;5105719;28;20581;-72
2023/08/05 12:29:56;;;;;;;0.03;0.03;;;;;;;;;;5084178;28;20253;-71
2023/08/05 12:32:23;;;;;;;0.00;0.00;;;;;;;;;;5109913;28;20297;-71
2023/08/05 12:34:49;;;;;;;0.00;0.00;;;;;;;;;;5087772;28;20399;-72
2023/08/05 12:37:15;;;;;;;0.00;0.00;;;;;;;;;;5109817;28;20494;-72
2023/08/05 12:39:41;;;;;;;0.00;0.00;;;;;;;;;;5087079;28;20235;-72
2023/08/05 12:42:09;;;;;;;0.00;0.00;;;;;;;;;;5109344;28;20242;-71
2023/08/05 12:44:36;;;;;;;0.10;0.10;;;;;;;;;;5087497;28;20245;-72
2023/08/05 12:47:02;;;;;;;0.00;0.00;;;;;;;;;;5107533;28;20245;-71
2023/08/05 12:49:28;;;;;;;0.00;0.00;;;;;;;;;;5088997;28;20214;-72
2023/08/05 12:51:55;;;;;;;0.10;0.10;;;;;;;;;;5105657;28;20312;-72
2023/08/05 12:54:21;;;;;;;0.00;0.00;;;;;;;;;;5090714;28;20234;-72
2023/08/05 12:56:47;;;;;;;0.10;0.10;;;;;;;;;;5103520;28;20312;-71
2023/08/05 12:59:15;;;;;;;0.10;0.10;;;;;;;;;;5092709;28;20281;-71
2023/08/05 13:01:41;;;;;;;0.00;0.00;;;;;;;;;;5101675;28;20300;-72
2023/08/05 13:04:08;;;;;;;0.10;0.10;;;;;;;;;;5094844;28;20213;-75
2023/08/05 13:06:34;;;;;;;0.00;0.00;;;;;;;;;;5099805;28;20237;-75
2023/08/05 13:09:00;;;;;;;0.00;0.00;;;;;;;;;;5095539;28;20246;-75
2023/08/05 13:11:27;;;;;;;0.05;0.05;;;;;;;;;;5097565;28;20255;-75
2023/08/05 13:13:53;;;;;;;0.00;0.00;;;;;;;;;;5098047;28;20540;-75
2023/08/05 13:16:21;;;;;;;0.00;0.00;;;;;;;;;;5095543;28;20300;-75
2023/08/05 13:18:47;;;;;;;0.10;0.10;;;;;;;;;;5099859;28;20248;-75
2023/08/05 13:21:13;;;;;;;0.00;0.00;;;;;;;;;;5092719;28;20283;-77
2023/08/05 13:23:40;;;;;;;0.10;0.10;;;;;;;;;;5102374;28;20234;-75
2023/08/05 13:26:06;;;;;;;0.10;0.10;;;;;;;;;;5091836;28;20482;-75
2023/08/05 13:28:33;;;;;;;0.00;0.00;;;;;;;;;;5103284;28;20203;-75
2023/08/05 13:31:01;;;;;;;0.10;0.10;;;;;;;;;;5089610;28;20239;-75
2023/08/05 13:33:28;;;;;;;0.00;0.00;;;;;;;;;;5104758;28;20211;-76
2023/08/05 13:35:55;;;;;;;0.00;0.00;;;;;;;;;;5088381;28;20253;-75
2023/08/05 13:38:21;;;;;;;0.00;0.00;;;;;;;;;;5106255;28;20519;-75
2023/08/05 13:40:49;;;;;;;0.00;0.00;;;;;;;;;;5086116;28;20253;-75
2023/08/05 13:43:16;;;;;;;0.00;0.00;;;;;;;;;;5107276;28;20459;-75
2023/08/05 13:45:47;;;;;;;0.00;0.00;;;;;;;;;;5085130;28;20439;-75
2023/08/05 13:48:14;;;;;;;0.10;0.10;;;;;;;;;;5107669;28;20274;-75
2023/08/05 13:50:41;;;;;;;0.00;0.00;;;;;;;;;;5084557;28;20242;-75
2023/08/05 13:53:08;;;;;;;0.00;0.00;;;;;;;;;;5109506;28;20437;-75
2023/08/05 13:55:34;;;;;;;0.00;0.00;;;;;;;;;;5083043;28;20505;-75
2023/08/05 13:58:01;;;;;;;0.10;0.10;;;;;;;;;;5111273;28;20257;-75
2023/08/05 14:00:27;;;;;;;0.00;0.00;;;;;;;;;;5080599;28;20206;-75
2023/08/05 14:02:53;;;;;;;0.00;0.00;;;;;;;;;;5113122;28;20243;-75
2023/08/05 14:05:20;;;;;;;0.10;0.10;;;;;;;;;;5078529;28;20242;-75
2023/08/05 14:07:48;;;;;;;0.05;0.05;;;;;;;;;;5114402;28;20258;-75
2023/08/05 14:10:15;;;;;;;0.10;0.10;;;;;;;;;;5077064;28;20195;-75
2023/08/05 14:12:41;;;;;;;0.00;0.00;;;;;;;;;;5115781;28;20312;-75
2023/08/05 14:15:08;;;;;;;0.00;0.00;;;;;;;;;;5083531;28;20274;-74
2023/08/05 14:17:34;;;;;;;0.00;0.00;;;;;;;;;;5117415;28;20486;-75
2023/08/05 14:20:00;;;;;;;0.00;0.00;;;;;;;;;;5085759;28;20286;-75
2023/08/05 14:22:27;;;;;;;0.08;0.08;;;;;;;;;;5107576;28;20233;-75
2023/08/05 14:24:54;;;;;;;0.00;0.00;;;;;;;;;;5085609;28;20242;-76
2023/08/05 14:27:21;;;;;;;0.00;0.00;;;;;;;;;;5107631;28;20256;-75
2023/08/05 14:29:51;;;;;;;0.10;0.10;;;;;;;;;;5085487;28;20274;-75
2023/08/05 14:32:17;;;;;;;0.00;0.00;;;;;;;;;;5107319;28;20252;-75
2023/08/05 14:34:44;;;;;;;0.00;0.00;;;;;;;;;;5084923;28;20458;-75
2023/08/05 14:37:10;;;;;;;0.05;0.05;;;;;;;;;;5107418;28;20261;-75
2023/08/05 14:39:36;;;;;;;0.00;0.00;;;;;;;;;;5085313;28;20442;-75
2023/08/05 14:42:04;;;;;;;0.35;0.35;;;;;;;;;;5105788;28;20249;-75
2023/08/05 14:44:31;;;;;;;0.00;0.00;;;;;;;;;;5086335;28;20240;-75
2023/08/05 14:46:57;;;;;;;0.03;0.03;;;;;;;;;;5104046;28;20290;-75